createdAt,value
2023-05-13T00:00:07.370Z,6.35
2023-05-13T00:02:35.982Z,7.03
2023-05-13T00:05:03.298Z,8.15
2023-05-13T00:07:30.723Z,4.28
2023-05-13T00:09:57.935Z,6.13
2023-05-13T00:12:25.323Z,6.93
2023-05-13T00:14:52.497Z,5.05
2023-05-13T00:17:19.691Z,6.13
2023-05-13T00:19:46.987Z,5.90
2023-05-13T00:22:14.742Z,6.00
2023-05-13T00:24:41.901Z,4.78
2023-05-13T00:27:10.296Z,5.20
2023-05-13T00:29:37.569Z,5.38
2023-05-13T00:32:05.152Z,6.05
2023-05-13T00:34:32.467Z,5.15
2023-05-13T00:37:01.119Z,4.32
2023-05-13T00:39:30.119Z,6.30
2023-05-13T00:41:57.544Z,4.75
2023-05-13T00:44:24.836Z,4.32
2023-05-13T00:46:52.097Z,4.63
2023-05-13T00:49:19.371Z,7.60
2023-05-13T00:51:46.720Z,4.80
2023-05-13T00:54:14.084Z,3.92
2023-05-13T00:56:41.397Z,4.82
2023-05-13T00:59:08.710Z,4.90
2023-05-13T01:01:56.138Z,6.22
2023-05-13T01:04:41.859Z,3.70
2023-05-13T01:07:42.325Z,5.35
2023-05-13T01:10:11.896Z,4.50
2023-05-13T01:12:41.939Z,5.40
2023-05-13T01:15:12.744Z,5.28
2023-05-13T01:17:55.132Z,6.78
2023-05-13T01:20:24.013Z,5.20
2023-05-13T01:22:51.572Z,5.70
2023-05-13T01:25:19.171Z,6.50
2023-05-13T01:27:46.766Z,6.00
2023-05-13T01:30:17.182Z,5.10
2023-05-13T01:32:45.469Z,5.28
2023-05-13T01:35:13.627Z,6.03
2023-05-13T01:37:45.335Z,6.63
2023-05-13T01:40:28.255Z,4.90
2023-05-13T01:43:01.091Z,5.63
2023-05-13T01:45:32.329Z,6.72
2023-05-13T01:48:00.309Z,5.93
2023-05-13T01:50:36.013Z,5.30
2023-05-13T01:53:03.440Z,6.05
2023-05-13T01:55:30.762Z,5.18
2023-05-13T01:57:59.401Z,4.53
2023-05-13T02:00:26.837Z,4.45
2023-05-13T02:02:54.244Z,4.20
2023-05-13T02:05:22.491Z,3.83
2023-05-13T02:07:50.675Z,4.15
2023-05-13T02:10:18.035Z,4.53
2023-05-13T02:12:45.219Z,3.90
2023-05-13T02:15:12.493Z,4.50
2023-05-13T02:17:39.737Z,3.53
2023-05-13T02:20:07.942Z,3.67
2023-05-13T02:22:36.253Z,5.38
2023-05-13T02:25:04.637Z,4.50
2023-05-13T02:27:31.888Z,3.67
2023-05-13T02:29:59.147Z,4.35
2023-05-13T02:32:26.858Z,4.60
2023-05-13T02:34:54.171Z,4.00
2023-05-13T02:37:21.443Z,4.18
2023-05-13T02:39:57.962Z,4.38
2023-05-13T02:42:25.185Z,6.20
2023-05-13T02:44:53.120Z,4.35
2023-05-13T02:47:20.654Z,3.35
2023-05-13T02:49:47.921Z,4.90
2023-05-13T02:52:15.136Z,4.75
2023-05-13T02:54:42.507Z,5.00
2023-05-13T02:57:10.127Z,4.15
2023-05-13T02:59:38.110Z,5.05
2023-05-13T03:02:05.584Z,4.32
2023-05-13T03:04:33.073Z,5.32
2023-05-13T03:07:00.486Z,6.13
2023-05-13T03:09:27.682Z,5.32
2023-05-13T03:11:54.970Z,5.15
2023-05-13T03:14:23.258Z,5.38
2023-05-13T03:16:50.482Z,4.65
2023-05-13T03:19:18.217Z,3.95
2023-05-13T03:21:45.602Z,5.28
2023-05-13T03:24:16.217Z,4.63
2023-05-13T03:26:43.741Z,5.38
2023-05-13T03:29:11.092Z,4.68
2023-05-13T03:31:38.649Z,4.45
2023-05-13T03:34:08.450Z,5.20
2023-05-13T03:36:35.891Z,3.60
2023-05-13T03:39:03.288Z,4.07
2023-05-13T03:41:30.793Z,3.35
2023-05-13T03:43:59.784Z,3.50
2023-05-13T03:46:28.379Z,5.50
2023-05-13T03:48:56.361Z,5.22
2023-05-13T03:51:23.867Z,4.45
2023-05-13T03:53:51.787Z,4.60
2023-05-13T03:56:18.999Z,6.38
2023-05-13T03:58:46.322Z,4.63
2023-05-13T04:01:13.518Z,5.18
2023-05-13T04:03:42.957Z,4.65
2023-05-13T04:06:10.216Z,3.42
2023-05-13T04:08:37.689Z,3.60
2023-05-13T04:11:04.928Z,3.72
2023-05-13T04:13:36.123Z,3.92
2023-05-13T04:16:03.931Z,3.67
2023-05-13T04:18:31.845Z,4.63
2023-05-13T04:20:59.094Z,4.97
2023-05-13T04:23:26.440Z,4.80
2023-05-13T04:25:53.716Z,4.15
2023-05-13T04:28:21.202Z,3.97
2023-05-13T04:30:50.216Z,3.85
2023-05-13T04:33:17.539Z,5.38
2023-05-13T04:35:46.663Z,5.30
2023-05-13T04:38:14.496Z,5.70
2023-05-13T04:40:41.782Z,4.43
2023-05-13T04:43:12.352Z,5.15
2023-05-13T04:45:47.877Z,6.15
2023-05-13T04:48:16.325Z,4.60
2023-05-13T04:50:47.543Z,4.78
2023-05-13T04:53:16.302Z,3.53
2023-05-13T04:55:48.555Z,4.47
2023-05-13T04:58:15.816Z,5.13
2023-05-13T05:00:43.227Z,4.03
2023-05-13T05:03:10.544Z,4.75
2023-05-13T05:05:38.050Z,4.07
2023-05-13T05:08:06.055Z,5.90
2023-05-13T05:10:33.726Z,4.78
2023-05-13T05:13:01.964Z,4.30
2023-05-13T05:15:29.975Z,4.95
2023-05-13T05:17:59.913Z,3.65
2023-05-13T05:20:27.498Z,4.25
2023-05-13T05:22:58.467Z,4.13
2023-05-13T05:25:27.008Z,2.85
2023-05-13T05:27:54.445Z,3.40
2023-05-13T05:30:22.703Z,4.10
2023-05-13T05:32:57.750Z,4.10
2023-05-13T05:35:25.673Z,4.18
2023-05-13T05:37:53.124Z,4.47
2023-05-13T05:40:21.782Z,3.75
2023-05-13T05:42:50.299Z,3.95
2023-05-13T05:45:17.609Z,4.93
2023-05-13T05:47:45.000Z,2.50
2023-05-13T05:50:12.682Z,4.30
2023-05-13T05:52:40.158Z,4.05
2023-05-13T05:55:08.035Z,5.07
2023-05-13T05:57:35.429Z,5.30
2023-05-13T06:00:02.727Z,5.35
2023-05-13T06:02:31.188Z,4.75
2023-05-13T06:04:58.817Z,5.47
2023-05-13T06:07:26.186Z,4.18
2023-05-13T06:09:53.496Z,3.42
2023-05-13T06:12:21.098Z,4.82
2023-05-13T06:14:48.688Z,3.75
2023-05-13T06:17:16.516Z,4.90
2023-05-13T06:19:44.069Z,4.93
2023-05-13T06:22:11.667Z,4.63
2023-05-13T06:24:39.254Z,4.97
2023-05-13T06:27:07.307Z,4.07
2023-05-13T06:29:35.644Z,6.47
2023-05-13T06:32:03.110Z,3.90
2023-05-13T06:34:30.496Z,4.57
2023-05-13T06:36:59.060Z,5.00
2023-05-13T06:39:26.603Z,4.22
2023-05-13T06:41:53.852Z,4.10
2023-05-13T06:44:23.306Z,4.13
2023-05-13T06:46:54.947Z,4.55
2023-05-13T06:49:22.311Z,4.72
2023-05-13T06:51:49.632Z,3.55
2023-05-13T06:54:16.942Z,5.15
2023-05-13T06:56:44.157Z,4.90
2023-05-13T06:59:12.148Z,3.92
2023-05-13T07:01:39.569Z,6.05
2023-05-13T07:04:06.848Z,4.50
2023-05-13T07:06:34.261Z,4.90
2023-05-13T07:09:02.700Z,3.80
2023-05-13T07:11:32.564Z,4.07
2023-05-13T07:13:59.726Z,4.50
2023-05-13T07:16:26.962Z,5.13
2023-05-13T07:18:54.515Z,4.13
2023-05-13T07:21:21.964Z,3.33
2023-05-13T07:23:49.284Z,3.20
2023-05-13T07:26:16.826Z,4.30
2023-05-13T07:28:44.101Z,4.15
2023-05-13T07:31:11.400Z,3.55
2023-05-13T07:33:38.768Z,4.20
2023-05-13T07:36:06.537Z,4.38
2023-05-13T07:38:34.212Z,5.07
2023-05-13T07:41:01.624Z,3.97
2023-05-13T07:43:28.968Z,4.40
2023-05-13T07:45:56.191Z,4.35
2023-05-13T07:48:25.379Z,3.97
2023-05-13T07:50:52.596Z,3.38
2023-05-13T07:53:20.053Z,4.88
2023-05-13T07:55:47.375Z,3.22
2023-05-13T07:58:14.601Z,3.22
2023-05-13T08:00:41.809Z,4.03
2023-05-13T08:03:09.099Z,4.45
2023-05-13T08:05:36.718Z,4.88
2023-05-13T08:08:04.545Z,3.90
2023-05-13T08:10:31.797Z,5.13
2023-05-13T08:13:01.031Z,3.78
2023-05-13T08:15:28.546Z,4.00
2023-05-13T08:17:55.850Z,3.55
2023-05-13T08:20:29.605Z,4.90
2023-05-13T08:22:58.565Z,2.08
2023-05-13T08:25:25.851Z,3.70
2023-05-13T08:27:53.066Z,4.15
2023-05-13T08:30:20.363Z,4.30
2023-05-13T08:32:47.658Z,4.20
2023-05-13T08:35:15.069Z,4.18
2023-05-13T08:37:42.379Z,3.75
2023-05-13T08:40:11.272Z,4.38
2023-05-13T08:42:42.593Z,4.40
2023-05-13T08:45:11.771Z,4.30
2023-05-13T08:47:56.677Z,4.10
2023-05-13T08:50:24.927Z,4.70
2023-05-13T08:52:55.822Z,4.22
2023-05-13T08:55:24.433Z,4.55
2023-05-13T08:57:52.362Z,4.93
2023-05-13T09:00:21.401Z,4.97
2023-05-13T09:02:50.468Z,4.10
2023-05-13T09:05:18.598Z,3.63
2023-05-13T09:07:46.183Z,2.65
2023-05-13T09:10:13.492Z,3.45
2023-05-13T09:12:44.327Z,3.55
2023-05-13T09:15:32.925Z,3.83
2023-05-13T09:18:03.400Z,5.15
2023-05-13T09:20:31.888Z,3.97
2023-05-13T09:23:04.503Z,4.47
2023-05-13T09:25:32.158Z,4.05
2023-05-13T09:28:04.798Z,4.55
2023-05-13T09:30:43.800Z,4.95
2023-05-13T09:33:14.007Z,3.55
2023-05-13T09:35:49.726Z,4.72
2023-05-13T09:38:22.472Z,4.30
2023-05-13T09:40:54.452Z,4.03
2023-05-13T09:43:23.340Z,4.70
2023-05-13T09:46:00.728Z,5.43
2023-05-13T09:48:29.682Z,4.30
2023-05-13T09:50:58.390Z,3.65
2023-05-13T09:53:26.792Z,4.57
2023-05-13T09:56:00.371Z,5.35
2023-05-13T09:58:30.663Z,5.10
2023-05-13T10:00:58.620Z,3.58
2023-05-13T10:03:27.477Z,5.47
2023-05-13T10:05:55.303Z,4.70
2023-05-13T10:08:23.159Z,4.97
2023-05-13T10:10:53.917Z,4.65
2023-05-13T10:13:24.672Z,5.20
2023-05-13T10:15:53.452Z,4.07
2023-05-13T10:18:22.496Z,3.92
2023-05-13T10:20:53.666Z,4.68
2023-05-13T10:23:24.057Z,4.85
2023-05-13T10:25:53.315Z,3.88
2023-05-13T10:28:20.834Z,3.85
2023-05-13T10:30:51.662Z,4.43
2023-05-13T10:33:19.627Z,4.75
2023-05-13T10:36:29.629Z,4.88
2023-05-13T10:39:02.444Z,3.38
2023-05-13T10:41:50.649Z,5.05
2023-05-13T10:44:20.027Z,4.10
2023-05-13T10:46:51.054Z,4.40
2023-05-13T10:49:18.348Z,4.78
2023-05-13T10:51:50.033Z,4.22
2023-05-13T10:54:27.045Z,4.63
2023-05-13T10:57:01.358Z,4.45
2023-05-13T10:59:30.671Z,3.70
2023-05-13T11:02:00.971Z,5.10
2023-05-13T11:04:28.283Z,5.47
2023-05-13T11:06:55.639Z,5.22
2023-05-13T11:09:23.048Z,4.10
2023-05-13T11:11:54.989Z,4.45
2023-05-13T11:14:24.030Z,3.97
2023-05-13T11:17:01.698Z,5.65
2023-05-13T11:19:30.897Z,4.68
2023-05-13T11:22:05.389Z,4.57
2023-05-13T11:27:19.555Z,5.20
2023-05-13T11:29:55.618Z,6.30
2023-05-13T11:33:12.464Z,4.72
2023-05-13T11:35:39.748Z,5.40
2023-05-13T11:38:07.056Z,4.35
2023-05-13T11:40:36.494Z,4.63
2023-05-13T11:43:05.293Z,4.90
2023-05-13T11:45:33.525Z,6.13
2023-05-13T11:48:22.215Z,6.65
2023-05-13T11:50:53.091Z,6.32
2023-05-13T11:53:22.499Z,6.35
2023-05-13T11:55:50.129Z,7.63
2023-05-13T11:58:17.495Z,5.93
2023-05-13T12:00:46.689Z,4.75
2023-05-13T12:03:16.384Z,5.15
2023-05-13T12:05:47.108Z,5.30
2023-05-13T12:08:14.336Z,7.00
2023-05-13T12:10:45.081Z,6.03
2023-05-13T12:13:12.640Z,6.20
2023-05-13T12:15:40.175Z,7.40
2023-05-13T12:18:07.805Z,6.90
2023-05-13T12:20:35.610Z,6.93
2023-05-13T12:23:04.284Z,6.43
2023-05-13T12:25:42.977Z,7.63
2023-05-13T12:28:20.561Z,5.97
2023-05-13T12:30:56.225Z,6.05
2023-05-13T12:33:28.327Z,6.60
2023-05-13T12:36:20.219Z,7.18
2023-05-13T12:39:11.208Z,7.32
2023-05-13T12:41:40.420Z,6.18
2023-05-13T12:44:17.013Z,6.40
2023-05-13T12:46:58.068Z,4.90
2023-05-13T12:49:25.515Z,5.55
2023-05-13T12:51:52.791Z,6.28
2023-05-13T12:54:20.116Z,4.72
2023-05-13T12:56:48.545Z,4.38
2023-05-13T12:59:16.882Z,5.30
2023-05-13T13:01:44.270Z,4.45
2023-05-13T13:04:12.329Z,6.55
2023-05-13T13:06:40.431Z,4.55
2023-05-13T13:09:07.688Z,4.28
2023-05-13T13:11:34.940Z,4.65
2023-05-13T13:14:02.400Z,4.47
2023-05-13T13:16:29.767Z,6.10
2023-05-13T13:19:01.532Z,5.72
2023-05-13T13:21:29.535Z,6.25
2023-05-13T13:23:56.753Z,6.30
2023-05-13T13:26:24.131Z,5.93
2023-05-13T13:28:51.347Z,5.15
2023-05-13T13:31:18.690Z,5.47
2023-05-13T13:33:45.977Z,5.43
2023-05-13T13:36:13.240Z,6.38
2023-05-13T13:38:40.408Z,6.00
2023-05-13T13:41:07.728Z,5.88
2023-05-13T13:43:34.902Z,6.13
2023-05-13T13:46:02.309Z,5.85
2023-05-13T13:48:29.585Z,6.65
2023-05-13T13:50:58.624Z,7.22
2023-05-13T13:53:25.958Z,7.53
2023-05-13T13:55:53.219Z,8.30
2023-05-13T13:58:20.974Z,5.68
2023-05-13T14:00:48.503Z,5.20
2023-05-13T14:03:15.827Z,6.03
2023-05-13T14:05:43.272Z,6.90
2023-05-13T14:08:12.116Z,7.22
2023-05-13T14:10:41.133Z,6.80
2023-05-13T14:13:09.596Z,7.45
2023-05-13T14:15:39.292Z,6.68
2023-05-13T14:18:09.530Z,6.22
2023-05-13T14:20:38.157Z,6.07
2023-05-13T14:23:05.598Z,6.28
2023-05-13T14:25:32.968Z,4.65
2023-05-13T14:28:00.271Z,4.57
2023-05-13T14:30:27.915Z,4.97
2023-05-13T14:32:55.269Z,6.55
2023-05-13T14:35:22.527Z,6.22
2023-05-13T14:37:49.805Z,5.85
2023-05-13T14:40:17.106Z,6.32
2023-05-13T14:42:44.401Z,5.93
2023-05-13T14:45:15.948Z,6.07
2023-05-13T14:47:44.989Z,6.78
2023-05-13T14:50:12.431Z,6.82
2023-05-13T14:52:39.707Z,7.22
2023-05-13T14:55:07.124Z,5.82
2023-05-13T14:57:34.384Z,7.35
2023-05-13T15:00:01.911Z,7.53
2023-05-13T15:02:29.590Z,7.78
2023-05-13T15:04:56.866Z,8.38
2023-05-13T15:07:24.189Z,7.78
2023-05-13T15:09:51.493Z,8.15
2023-05-13T15:12:18.834Z,6.35
2023-05-13T15:14:55.396Z,8.25
2023-05-13T15:17:22.760Z,7.95
2023-05-13T15:19:50.337Z,8.02
2023-05-13T15:22:18.438Z,9.45
2023-05-13T15:24:45.742Z,7.85
2023-05-13T15:27:13.041Z,7.80
2023-05-13T15:29:40.344Z,7.90
2023-05-13T15:32:07.992Z,7.68
2023-05-13T15:34:35.309Z,8.93
2023-05-13T15:37:02.487Z,9.27
2023-05-13T15:39:29.709Z,8.55
2023-05-13T15:41:56.949Z,8.48
2023-05-13T15:44:24.879Z,8.65
2023-05-13T15:46:52.366Z,8.13
2023-05-13T15:49:19.707Z,6.65
2023-05-13T15:51:46.935Z,8.45
2023-05-13T15:54:14.268Z,7.72
2023-05-13T15:56:41.547Z,9.43
2023-05-13T15:59:08.750Z,8.90
2023-05-13T16:01:42.100Z,9.52
2023-05-13T16:04:10.167Z,8.95
2023-05-13T16:06:37.490Z,9.32
2023-05-13T16:09:04.805Z,10.00
2023-05-13T16:11:32.171Z,9.75
2023-05-13T16:13:59.451Z,10.48
2023-05-13T16:16:26.804Z,10.02
2023-05-13T16:18:55.551Z,7.65
2023-05-13T16:21:22.970Z,7.45
2023-05-13T16:23:51.113Z,7.82
2023-05-13T16:26:18.383Z,9.20
2023-05-13T16:28:45.688Z,8.43
2023-05-13T16:31:12.990Z,7.82
2023-05-13T16:33:40.360Z,8.02
2023-05-13T16:36:11.378Z,8.90
2023-05-13T16:38:41.477Z,8.40
2023-05-13T16:41:09.104Z,6.72
2023-05-13T16:43:36.397Z,7.40
2023-05-13T16:46:03.774Z,7.13
2023-05-13T16:48:31.135Z,6.10
2023-05-13T16:50:58.452Z,8.60
2023-05-13T16:53:26.390Z,8.50
2023-05-13T16:55:53.640Z,8.23
2023-05-13T16:58:21.306Z,8.15
2023-05-13T17:00:48.544Z,9.00
2023-05-13T17:03:16.158Z,10.13
2023-05-13T17:05:43.742Z,9.10
2023-05-13T17:08:11.281Z,9.20
2023-05-13T17:10:38.530Z,8.63
2023-05-13T17:13:05.774Z,7.25
2023-05-13T17:15:33.048Z,8.93
2023-05-13T17:18:00.457Z,10.85
2023-05-13T17:20:27.738Z,11.15
2023-05-13T17:22:54.998Z,10.80
2023-05-13T17:25:22.235Z,8.02
2023-05-13T17:27:49.556Z,7.90
2023-05-13T17:30:16.937Z,8.10
2023-05-13T17:32:44.185Z,7.43
2023-05-13T17:35:11.393Z,9.20
2023-05-13T17:37:38.575Z,7.72
2023-05-13T17:40:06.537Z,9.25
2023-05-13T17:42:33.813Z,7.97
2023-05-13T17:45:02.095Z,8.38
2023-05-13T17:47:29.930Z,7.55
2023-05-13T17:49:57.126Z,7.82
2023-05-13T17:52:24.409Z,6.80
2023-05-13T17:54:51.922Z,9.52
2023-05-13T17:57:19.149Z,10.25
2023-05-13T17:59:46.487Z,7.78
2023-05-13T18:02:13.790Z,7.47
2023-05-13T18:04:41.187Z,7.22
2023-05-13T18:07:08.615Z,7.35
2023-05-13T18:09:36.243Z,7.75
2023-05-13T18:12:03.565Z,6.22
2023-05-13T18:14:32.450Z,6.18
2023-05-13T18:17:00.297Z,5.57
2023-05-13T18:19:27.800Z,6.82
2023-05-13T18:21:54.952Z,8.02
2023-05-13T18:24:22.251Z,6.95
2023-05-13T18:26:49.468Z,6.80
2023-05-13T18:29:16.733Z,7.78
2023-05-13T18:31:44.205Z,7.25
2023-05-13T18:34:11.476Z,6.50
2023-05-13T18:36:38.707Z,5.60
2023-05-13T18:39:06.127Z,7.43
2023-05-13T18:41:33.404Z,7.40
2023-05-13T18:44:00.621Z,6.10
2023-05-13T18:46:51.376Z,7.25
2023-05-13T18:49:18.650Z,6.35
2023-05-13T18:51:46.025Z,6.07
2023-05-13T18:54:13.240Z,9.57
2023-05-13T18:56:41.277Z,11.93
2023-05-13T18:59:08.644Z,10.85
2023-05-13T19:01:35.956Z,8.98
2023-05-13T19:04:03.425Z,11.02
2023-05-13T19:06:31.969Z,8.20
2023-05-13T19:08:59.186Z,8.30
2023-05-13T19:11:26.484Z,8.52
2023-05-13T19:13:53.718Z,8.48
2023-05-13T19:16:21.043Z,8.38
2023-05-13T19:18:48.402Z,8.48
2023-05-13T19:21:15.677Z,6.72
2023-05-13T19:23:42.952Z,8.73
2023-05-13T19:26:10.186Z,6.28
2023-05-13T19:28:38.465Z,7.25
2023-05-13T19:31:06.229Z,6.85
2023-05-13T19:33:33.734Z,8.30
2023-05-13T19:36:01.213Z,7.30
2023-05-13T19:38:28.463Z,10.45
2023-05-13T19:40:55.747Z,8.13
2023-05-13T19:43:23.808Z,8.05
2023-05-13T19:45:51.823Z,7.38
2023-05-13T19:48:19.073Z,8.25
2023-05-13T19:50:46.825Z,6.53
2023-05-13T19:53:14.012Z,7.10
2023-05-13T19:55:41.369Z,7.72
2023-05-13T19:58:08.614Z,7.72
2023-05-13T20:00:35.804Z,9.20
2023-05-13T20:03:03.092Z,7.28
2023-05-13T20:05:30.763Z,7.03
2023-05-13T20:07:58.021Z,6.95
2023-05-13T20:10:25.542Z,7.63
2023-05-13T20:12:52.911Z,7.90
2023-05-13T20:15:20.228Z,6.65
2023-05-13T20:17:47.566Z,7.93
2023-05-13T20:20:15.035Z,7.22
2023-05-13T20:22:42.381Z,6.22
2023-05-13T20:25:10.044Z,6.68
2023-05-13T20:27:37.371Z,5.65
2023-05-13T20:30:04.938Z,6.95
2023-05-13T20:32:32.292Z,5.38
2023-05-13T20:34:59.518Z,6.80
2023-05-13T20:37:27.041Z,5.68
2023-05-13T20:39:54.319Z,6.82
2023-05-13T20:42:22.577Z,6.05
2023-05-13T20:44:50.830Z,7.07
2023-05-13T20:47:18.591Z,6.72
2023-05-13T20:49:46.593Z,7.35
2023-05-13T20:52:13.846Z,8.32
2023-05-13T20:54:41.151Z,7.68
2023-05-13T20:57:08.457Z,8.10
2023-05-13T20:59:35.842Z,7.65
2023-05-13T21:02:03.334Z,10.55
2023-05-13T21:04:31.159Z,7.00
2023-05-13T21:06:58.392Z,8.75
2023-05-13T21:09:25.772Z,7.93
2023-05-13T21:11:53.019Z,7.68
2023-05-13T21:14:20.537Z,7.05
2023-05-13T21:16:47.797Z,7.55
2023-05-13T21:19:22.534Z,6.18
2023-05-13T21:21:50.226Z,6.78
2023-05-13T21:24:19.198Z,5.97
2023-05-13T21:26:47.442Z,7.35
2023-05-13T21:29:16.251Z,5.70
2023-05-13T21:31:46.239Z,6.25
2023-05-13T21:34:13.573Z,6.68
2023-05-13T21:36:40.853Z,6.90
2023-05-13T21:39:10.379Z,7.45
2023-05-13T21:41:37.962Z,8.05
2023-05-13T21:44:05.478Z,7.85
2023-05-13T21:46:32.794Z,6.80
2023-05-13T21:49:00.796Z,6.63
2023-05-13T21:51:28.689Z,8.20
2023-05-13T21:53:56.310Z,8.30
2023-05-13T21:56:23.787Z,6.68
2023-05-13T21:58:51.138Z,7.90
2023-05-13T22:01:18.739Z,4.53
2023-05-13T22:03:46.022Z,6.47
2023-05-13T22:06:13.259Z,5.70
2023-05-13T22:08:40.619Z,5.88
2023-05-13T22:11:07.878Z,7.13
2023-05-13T22:13:35.059Z,6.60
2023-05-13T22:16:02.321Z,7.65
2023-05-13T22:18:29.852Z,7.32
2023-05-13T22:20:58.767Z,6.88
2023-05-13T22:23:26.106Z,6.40
2023-05-13T22:25:53.294Z,8.15
2023-05-13T22:28:20.579Z,7.03
2023-05-13T22:30:49.500Z,7.28
2023-05-13T22:33:17.315Z,7.85
2023-05-13T22:35:44.701Z,8.13
2023-05-13T22:38:12.083Z,6.80
2023-05-13T22:40:39.453Z,7.03
2023-05-13T22:43:06.695Z,7.63
2023-05-13T22:45:33.894Z,5.88
2023-05-13T22:48:01.090Z,8.50
2023-05-13T22:50:28.323Z,7.07
2023-05-13T22:52:56.413Z,7.30
2023-05-13T22:55:23.734Z,7.57
2023-05-13T22:57:50.954Z,7.03
2023-05-13T23:00:18.260Z,7.78
2023-05-13T23:02:45.718Z,6.82
2023-05-13T23:05:12.978Z,7.38
2023-05-13T23:07:40.258Z,6.97
2023-05-13T23:10:07.904Z,7.25
2023-05-13T23:12:35.275Z,7.22
2023-05-13T23:15:02.611Z,6.85
2023-05-13T23:17:30.472Z,7.22
2023-05-13T23:19:57.765Z,7.85
2023-05-13T23:22:25.048Z,9.98
2023-05-13T23:24:52.363Z,8.95
2023-05-13T23:27:19.647Z,8.43
2023-05-13T23:29:46.993Z,7.72
2023-05-13T23:32:14.267Z,7.88
2023-05-13T23:34:41.545Z,9.23
2023-05-13T23:37:08.748Z,8.00
2023-05-13T23:39:36.055Z,8.80
2023-05-13T23:42:03.467Z,8.95
2023-05-13T23:44:30.872Z,9.13
2023-05-13T23:46:58.810Z,9.25
2023-05-13T23:49:26.152Z,9.45
2023-05-13T23:51:53.512Z,10.05
2023-05-13T23:54:20.767Z,9.27
2023-05-13T23:56:48.026Z,8.75
2023-05-13T23:59:15.492Z,8.63
